Terminal Aerodrome Forecast
Issued by NWS

Home | Current Version | Previous Version | Graphics & Text | Print | Product List | Glossary On
Versions: 1 2 3 4 5 6 7 8 9 10 11 12 13 14 15 16 17 18
000
FTUS43 KMPX 290851 AAB
TAFRNH
TAF AMD
KRNH 290851Z 2909/3006 26003KT P6SM OVC004
     FM291200 28006KT 6SM BR OVC007
     FM291500 28011G16KT P6SM VCSH BKN025 OVC050
     FM292000 27009KT P6SM SCT045 BKN200=

USA.gov is the U.S. government's official web portal to all federal, state and local government web resources and services.